createdAt,value
2019-01-15T00:00:08.100Z,3.70
2019-01-15T00:02:36.679Z,4.07
2019-01-15T00:05:06.661Z,3.50
2019-01-15T00:07:35.120Z,3.43
2019-01-15T00:10:05.375Z,3.50
2019-01-15T00:12:33.878Z,4.63
2019-01-15T00:15:02.383Z,3.70
2019-01-15T00:17:32.444Z,3.37
2019-01-15T00:20:00.926Z,4.20
2019-01-15T00:22:29.485Z,4.43
2019-01-15T00:24:57.922Z,3.53
2019-01-15T00:27:26.484Z,3.70
2019-01-15T00:29:54.927Z,3.53
2019-01-15T00:32:23.372Z,3.57
2019-01-15T00:34:53.344Z,3.60
2019-01-15T00:37:21.793Z,3.63
2019-01-15T00:39:51.889Z,3.13
2019-01-15T00:42:20.361Z,3.50
2019-01-15T00:44:48.821Z,3.47
2019-01-15T00:47:17.332Z,3.27
2019-01-15T00:49:46.074Z,3.50
2019-01-15T00:52:14.579Z,3.30
2019-01-15T00:54:44.785Z,3.13
2019-01-15T00:57:13.202Z,3.50
2019-01-15T00:59:41.683Z,3.53
2019-01-15T01:02:10.201Z,3.63
2019-01-15T01:04:38.725Z,3.40
2019-01-15T01:07:07.239Z,3.50
2019-01-15T01:09:35.927Z,2.93
2019-01-15T01:12:04.411Z,3.50
2019-01-15T01:14:32.833Z,3.50
2019-01-15T01:17:01.435Z,3.53
2019-01-15T01:19:29.875Z,3.60
2019-01-15T01:21:58.421Z,3.23
2019-01-15T01:24:28.092Z,3.20
2019-01-15T01:26:56.548Z,3.53
2019-01-15T01:29:24.971Z,2.90
2019-01-15T01:31:55.083Z,3.43
2019-01-15T01:34:25.067Z,2.93
2019-01-15T01:36:53.516Z,3.50
2019-01-15T01:39:21.985Z,3.20
2019-01-15T01:41:51.813Z,3.67
2019-01-15T01:44:20.279Z,3.17
2019-01-15T01:46:48.729Z,3.70
2019-01-15T01:49:17.257Z,3.07
2019-01-15T01:51:45.707Z,2.67
2019-01-15T01:54:14.177Z,3.10
2019-01-15T01:56:42.662Z,3.43
2019-01-15T01:59:11.107Z,3.00
2019-01-15T02:01:39.538Z,3.67
2019-01-15T02:04:07.993Z,3.23
2019-01-15T02:06:37.984Z,3.00
2019-01-15T02:09:07.976Z,3.23
2019-01-15T02:11:36.588Z,3.10
2019-01-15T02:14:05.198Z,2.70
2019-01-15T02:16:33.648Z,3.20
2019-01-15T02:19:02.084Z,3.13
2019-01-15T02:21:30.553Z,2.70
2019-01-15T02:24:01.452Z,3.33
2019-01-15T02:26:32.597Z,3.13
2019-01-15T02:29:01.026Z,2.80
2019-01-15T02:31:29.523Z,2.73
2019-01-15T02:33:57.950Z,2.93
2019-01-15T02:36:26.434Z,2.80
2019-01-15T02:38:54.838Z,3.33
2019-01-15T02:41:23.387Z,3.77
2019-01-15T02:43:53.859Z,4.37
2019-01-15T02:46:22.326Z,3.13
2019-01-15T02:48:50.845Z,3.40
2019-01-15T02:51:19.797Z,3.10
2019-01-15T02:53:48.274Z,2.70
2019-01-15T02:56:16.764Z,2.87
2019-01-15T02:58:46.705Z,3.27
2019-01-15T03:01:15.159Z,3.40
2019-01-15T03:03:43.697Z,2.77
2019-01-15T03:06:12.343Z,3.53
2019-01-15T03:08:40.747Z,3.60
2019-01-15T03:11:09.204Z,3.20
2019-01-15T03:13:39.737Z,3.10
2019-01-15T03:16:08.269Z,3.63
2019-01-15T03:18:36.714Z,2.73
2019-01-15T03:21:05.304Z,3.37
2019-01-15T03:23:33.759Z,3.13
2019-01-15T03:26:02.339Z,3.33
2019-01-15T03:28:30.765Z,2.80
2019-01-15T03:31:02.297Z,3.03
2019-01-15T03:33:30.781Z,3.13
2019-01-15T03:36:00.170Z,2.67
2019-01-15T03:38:28.609Z,2.97
2019-01-15T03:40:57.062Z,2.70
2019-01-15T03:43:25.501Z,2.73
2019-01-15T03:45:54.004Z,2.73
2019-01-15T03:48:22.451Z,2.77
2019-01-15T03:50:50.939Z,2.43
2019-01-15T03:53:21.088Z,2.60
2019-01-15T03:55:49.645Z,2.53
2019-01-15T03:58:18.094Z,2.80
2019-01-15T04:00:46.606Z,2.63
2019-01-15T04:03:15.166Z,2.80
2019-01-15T04:05:43.637Z,2.20
2019-01-15T04:08:12.093Z,2.40
2019-01-15T04:10:40.585Z,2.30
2019-01-15T04:13:11.452Z,2.67
2019-01-15T04:15:39.240Z,2.23
2019-01-15T04:18:07.824Z,2.60
2019-01-15T04:20:36.396Z,2.30
2019-01-15T04:23:04.916Z,2.93
2019-01-15T04:25:33.408Z,2.57
2019-01-15T04:28:01.975Z,2.20
2019-01-15T04:30:30.669Z,2.40
2019-01-15T04:32:59.154Z,2.30
2019-01-15T04:35:27.552Z,2.20
2019-01-15T04:37:56.048Z,2.33
2019-01-15T04:40:24.474Z,2.47
2019-01-15T04:42:52.992Z,2.70
2019-01-15T04:45:23.523Z,2.37
2019-01-15T04:47:52.041Z,2.27
2019-01-15T04:50:20.640Z,2.07
2019-01-15T04:52:50.846Z,2.17
2019-01-15T04:55:19.419Z,2.20
2019-01-15T04:57:47.876Z,2.60
2019-01-15T05:00:18.978Z,2.57
2019-01-15T05:02:48.007Z,2.10
2019-01-15T05:05:16.780Z,2.60
2019-01-15T05:07:45.369Z,2.27
2019-01-15T05:10:15.444Z,2.27
2019-01-15T05:12:44.008Z,2.27
2019-01-15T05:15:16.929Z,2.33
2019-01-15T05:17:45.497Z,2.63
2019-01-15T05:20:18.646Z,2.10
2019-01-15T05:22:47.405Z,2.10
2019-01-15T05:25:18.711Z,2.17
2019-01-15T05:27:47.192Z,2.10
2019-01-15T05:30:24.078Z,2.33
2019-01-15T05:32:52.657Z,2.10
2019-01-15T05:35:21.162Z,2.10
2019-01-15T05:37:51.018Z,2.50
2019-01-15T05:40:20.136Z,2.07
2019-01-15T05:42:48.815Z,2.43
2019-01-15T05:45:21.110Z,2.20
2019-01-15T05:47:51.514Z,3.10
2019-01-15T05:50:21.738Z,2.80
2019-01-15T05:52:50.254Z,4.27
2019-01-15T05:55:18.679Z,2.70
2019-01-15T05:57:47.190Z,2.60
2019-01-15T06:00:18.719Z,2.90
2019-01-15T06:02:47.189Z,2.50
2019-01-15T06:05:16.369Z,3.30
2019-01-15T06:07:44.849Z,2.30
2019-01-15T06:10:15.300Z,2.57
2019-01-15T06:12:43.831Z,3.10
2019-01-15T06:15:14.559Z,3.47
2019-01-15T06:17:42.999Z,2.40
2019-01-15T06:20:23.361Z,3.07
2019-01-15T06:22:51.919Z,2.90
2019-01-15T06:25:20.721Z,2.17
2019-01-15T06:27:51.010Z,3.23
2019-01-15T06:30:22.609Z,2.90
2019-01-15T06:32:51.039Z,3.03
2019-01-15T06:35:19.647Z,3.50
2019-01-15T06:37:48.188Z,3.17
2019-01-15T06:40:20.807Z,3.00
2019-01-15T06:42:49.448Z,2.13
2019-01-15T06:45:31.490Z,2.63
2019-01-15T06:48:01.936Z,6.60
2019-01-15T06:50:30.377Z,4.97
2019-01-15T06:52:58.898Z,3.07
2019-01-15T06:55:31.819Z,2.80
2019-01-15T06:58:00.227Z,2.60
2019-01-15T07:00:30.515Z,3.20
2019-01-15T07:03:00.213Z,3.10
2019-01-15T07:05:29.046Z,3.10
2019-01-15T07:07:57.471Z,2.97
2019-01-15T07:10:28.951Z,3.10
2019-01-15T07:12:57.502Z,3.83
2019-01-15T07:15:26.061Z,3.73
2019-01-15T07:17:56.889Z,4.30
2019-01-15T07:20:25.437Z,3.70
2019-01-15T07:22:54.048Z,4.53
2019-01-15T07:25:24.696Z,4.50
2019-01-15T07:27:53.186Z,4.03
2019-01-15T07:30:36.767Z,5.60
2019-01-15T07:33:06.154Z,5.07
2019-01-15T07:35:35.112Z,5.33
2019-01-15T07:38:03.619Z,5.10
2019-01-15T07:40:32.072Z,5.87
2019-01-15T07:43:00.654Z,5.70
2019-01-15T07:45:29.243Z,5.97
2019-01-15T07:47:57.753Z,6.13
2019-01-15T07:50:26.256Z,7.03
2019-01-15T07:52:54.836Z,6.97
2019-01-15T07:55:23.501Z,8.47
2019-01-15T07:57:52.061Z,9.27
2019-01-15T08:00:25.079Z,10.77
2019-01-15T08:02:54.395Z,10.20
2019-01-15T08:05:24.695Z,10.77
2019-01-15T08:07:53.199Z,12.10
2019-01-15T08:10:21.742Z,11.23
2019-01-15T08:12:50.741Z,12.87
2019-01-15T08:15:24.890Z,13.00
2019-01-15T08:17:53.329Z,12.23
2019-01-15T08:20:22.026Z,13.20
2019-01-15T08:22:50.566Z,12.70
2019-01-15T08:25:19.500Z,12.63
2019-01-15T08:27:48.000Z,12.50
2019-01-15T08:30:28.218Z,11.83
2019-01-15T08:32:58.235Z,12.37
2019-01-15T08:35:26.753Z,13.10
2019-01-15T08:37:55.455Z,12.03
2019-01-15T08:40:24.097Z,12.77
2019-01-15T08:42:52.607Z,12.90
2019-01-15T08:45:21.159Z,12.03
2019-01-15T08:47:54.351Z,13.47
2019-01-15T08:50:30.827Z,14.90
2019-01-15T08:52:59.414Z,16.67
2019-01-15T08:55:28.009Z,16.37
2019-01-15T08:57:56.515Z,14.97
2019-01-15T09:00:25.071Z,14.07
2019-01-15T09:02:53.526Z,14.33
2019-01-15T09:05:22.146Z,15.53
2019-01-15T09:07:52.108Z,16.60
2019-01-15T09:10:20.636Z,14.67
2019-01-15T09:12:49.235Z,14.53
2019-01-15T09:15:22.123Z,15.67
2019-01-15T09:17:50.740Z,15.57
2019-01-15T09:20:20.927Z,16.87
2019-01-15T09:22:51.164Z,16.57
2019-01-15T09:25:19.695Z,16.13
2019-01-15T09:27:48.282Z,16.03
2019-01-15T09:30:18.869Z,15.97
2019-01-15T09:32:47.512Z,15.53
2019-01-15T09:35:16.050Z,15.17
2019-01-15T09:37:46.042Z,15.00
2019-01-15T09:40:17.381Z,15.97
2019-01-15T09:42:45.932Z,15.70
2019-01-15T09:45:16.672Z,16.10
2019-01-15T09:47:49.592Z,15.17
2019-01-15T09:50:19.654Z,15.00
2019-01-15T09:52:48.313Z,15.43
2019-01-15T09:55:16.951Z,16.03
2019-01-15T09:57:45.522Z,14.73
2019-01-15T10:00:16.732Z,14.53
2019-01-15T10:02:45.354Z,16.60
2019-01-15T10:05:13.887Z,15.63
2019-01-15T10:07:42.417Z,15.90
2019-01-15T10:10:13.846Z,15.70
2019-01-15T10:12:42.341Z,15.30
2019-01-15T10:15:14.022Z,16.93
2019-01-15T10:17:42.743Z,16.07
2019-01-15T10:20:13.069Z,17.87
2019-01-15T10:22:41.682Z,17.17
2019-01-15T10:25:12.200Z,19.30
2019-01-15T10:27:41.281Z,17.00
2019-01-15T10:30:20.004Z,19.60
2019-01-15T10:32:51.494Z,18.83
2019-01-15T10:35:22.998Z,18.90
2019-01-15T10:37:51.540Z,19.23
2019-01-15T10:40:20.006Z,19.07
2019-01-15T10:42:51.290Z,20.13
2019-01-15T10:45:20.057Z,20.33
2019-01-15T10:47:48.588Z,19.57
2019-01-15T10:50:17.359Z,20.70
2019-01-15T10:52:45.792Z,20.53
2019-01-15T10:55:14.271Z,19.67
2019-01-15T10:57:42.881Z,19.90
2019-01-15T11:00:13.653Z,20.30
2019-01-15T11:02:43.759Z,19.97
2019-01-15T11:05:12.860Z,20.73
2019-01-15T11:07:41.338Z,20.03
2019-01-15T11:10:12.833Z,19.97
2019-01-15T11:12:41.752Z,20.60
2019-01-15T11:15:10.328Z,20.83
2019-01-15T11:17:38.874Z,21.23
2019-01-15T11:20:13.327Z,20.37
2019-01-15T11:22:43.316Z,19.13
2019-01-15T11:25:11.919Z,20.40
2019-01-15T11:27:40.375Z,19.83
2019-01-15T11:30:11.928Z,21.83
2019-01-15T11:32:40.353Z,19.67
2019-01-15T11:35:13.036Z,21.13
2019-01-15T11:37:41.495Z,20.57
2019-01-15T11:40:15.968Z,19.07
2019-01-15T11:42:44.475Z,20.20
2019-01-15T11:45:18.832Z,19.60
2019-01-15T11:47:47.808Z,19.60
2019-01-15T11:50:18.708Z,19.30
2019-01-15T11:52:47.320Z,19.70
2019-01-15T11:55:15.816Z,19.87
2019-01-15T11:57:45.753Z,25.63
2019-01-15T12:00:36.816Z,21.20
2019-01-15T12:03:10.586Z,18.30
2019-01-15T12:05:58.090Z,17.97
2019-01-15T12:08:44.243Z,19.50
2019-01-15T12:11:14.386Z,17.60
2019-01-15T12:13:53.950Z,18.43
2019-01-15T12:16:29.964Z,17.57
2019-01-15T12:19:09.346Z,17.10
2019-01-15T12:21:45.138Z,16.20
2019-01-15T12:24:18.331Z,16.87
2019-01-15T12:27:00.737Z,17.60
2019-01-15T12:29:47.029Z,19.20
2019-01-15T12:32:17.124Z,17.07
2019-01-15T12:35:03.331Z,18.57
2019-01-15T12:37:33.621Z,18.67
2019-01-15T12:40:09.973Z,19.30
2019-01-15T12:42:48.780Z,17.77
2019-01-15T12:45:35.848Z,17.87
2019-01-15T12:48:18.647Z,17.47
2019-01-15T12:50:51.405Z,17.17
2019-01-15T12:53:27.627Z,15.60
2019-01-15T12:56:12.962Z,16.03
2019-01-15T12:58:43.106Z,15.40
2019-01-15T13:01:28.419Z,14.60
2019-01-15T13:04:04.283Z,14.90
2019-01-15T13:06:53.759Z,14.53
2019-01-15T13:09:29.764Z,13.93
2019-01-15T13:12:15.068Z,14.50
2019-01-15T13:14:53.980Z,12.70
2019-01-15T13:17:40.225Z,12.87
2019-01-15T13:20:13.417Z,13.23
2019-01-15T13:22:55.626Z,12.20
2019-01-15T13:25:42.340Z,12.97
2019-01-15T13:28:28.310Z,12.77
2019-01-15T13:31:02.557Z,12.67
2019-01-15T13:33:38.833Z,12.90
2019-01-15T13:36:27.651Z,13.53
2019-01-15T13:39:13.720Z,12.67
2019-01-15T13:41:46.657Z,12.83
2019-01-15T13:44:19.456Z,12.60
2019-01-15T13:47:01.409Z,12.17
2019-01-15T13:49:43.919Z,11.53
2019-01-15T13:52:30.516Z,12.23
2019-01-15T13:55:00.759Z,11.43
2019-01-15T13:57:30.971Z,11.97
2019-01-15T14:00:19.164Z,11.73
2019-01-15T14:03:01.430Z,11.70
2019-01-15T14:05:37.531Z,11.10
2019-01-15T14:08:10.214Z,10.60
2019-01-15T14:10:43.064Z,9.57
2019-01-15T14:13:41.928Z,10.33
2019-01-15T14:16:15.197Z,10.17
2019-01-15T14:18:47.602Z,10.83
2019-01-15T14:21:20.577Z,9.97
2019-01-15T14:23:50.750Z,10.10
2019-01-15T14:26:29.956Z,9.70
2019-01-15T14:29:09.170Z,9.53
2019-01-15T14:31:44.945Z,9.43
2019-01-15T14:34:27.086Z,9.47
2019-01-15T14:36:57.179Z,9.20
2019-01-15T14:39:36.234Z,9.27
2019-01-15T14:42:09.331Z,9.37
2019-01-15T14:44:45.169Z,9.40
2019-01-15T14:47:33.412Z,9.30
2019-01-15T14:50:12.742Z,9.40
2019-01-15T14:52:45.636Z,9.83
2019-01-15T14:55:32.794Z,10.07
2019-01-15T14:58:02.907Z,10.27
2019-01-15T15:00:49.429Z,10.40
2019-01-15T15:03:36.085Z,10.03
2019-01-15T15:06:12.844Z,9.83
2019-01-15T15:08:43.052Z,10.10
2019-01-15T15:11:27.899Z,9.90
2019-01-15T15:14:14.464Z,9.87
2019-01-15T15:16:47.999Z,10.03
2019-01-15T15:19:27.037Z,9.63
2019-01-15T15:22:06.203Z,9.50
2019-01-15T15:24:36.383Z,9.33
2019-01-15T15:27:06.683Z,10.10
2019-01-15T15:29:36.830Z,9.87
2019-01-15T15:32:22.902Z,9.40
2019-01-15T15:34:53.092Z,10.43
2019-01-15T15:37:29.180Z,9.67
2019-01-15T15:39:59.368Z,10.20
2019-01-15T15:42:32.004Z,11.00
2019-01-15T15:45:05.919Z,11.03
2019-01-15T15:47:54.440Z,10.43
2019-01-15T15:50:39.322Z,10.87
2019-01-15T15:53:12.123Z,9.77
2019-01-15T15:55:58.162Z,10.27
2019-01-15T15:58:29.412Z,10.13
2019-01-15T16:01:02.192Z,10.98
2019-01-15T16:03:35.097Z,10.00
2019-01-15T16:06:07.970Z,9.97
2019-01-15T16:08:44.070Z,9.57
2019-01-15T16:11:31.489Z,10.90
2019-01-15T16:14:03.951Z,10.57
2019-01-15T16:16:37.208Z,10.60
2019-01-15T16:19:10.258Z,11.30
2019-01-15T16:21:58.618Z,12.10
2019-01-15T16:24:36.398Z,10.43
2019-01-15T16:27:09.514Z,10.33
2019-01-15T16:29:45.516Z,11.27
2019-01-15T16:32:30.616Z,11.00
2019-01-15T16:35:00.817Z,11.20
2019-01-15T16:37:36.486Z,11.37
2019-01-15T16:40:14.859Z,11.17
2019-01-15T16:42:47.478Z,11.83
2019-01-15T16:45:34.011Z,11.47
2019-01-15T16:48:12.967Z,11.90
2019-01-15T16:50:58.913Z,12.53
2019-01-15T16:53:38.180Z,12.23
2019-01-15T16:56:08.381Z,11.37
2019-01-15T16:58:38.530Z,12.07
2019-01-15T17:01:24.934Z,12.33
2019-01-15T17:04:02.419Z,13.60
2019-01-15T17:06:44.668Z,12.93
2019-01-15T17:09:21.073Z,13.03
2019-01-15T17:12:07.388Z,12.43
2019-01-15T17:14:52.717Z,13.40
2019-01-15T17:17:35.220Z,14.00
2019-01-15T17:20:15.329Z,14.30
2019-01-15T17:22:45.424Z,13.93
2019-01-15T17:25:15.729Z,15.50
2019-01-15T17:27:51.754Z,14.47
2019-01-15T17:30:21.922Z,15.60
2019-01-15T17:33:10.163Z,15.90
2019-01-15T17:35:43.117Z,15.90
2019-01-15T17:38:19.317Z,16.83
2019-01-15T17:40:52.259Z,16.63
2019-01-15T17:43:22.331Z,17.03
2019-01-15T17:45:55.241Z,16.80
2019-01-15T17:48:41.697Z,16.83
2019-01-15T17:51:21.167Z,17.27
2019-01-15T17:54:03.196Z,17.33
2019-01-15T17:56:42.285Z,16.87
2019-01-15T17:59:18.104Z,16.43
2019-01-15T18:01:56.831Z,17.43
2019-01-15T18:04:29.452Z,15.60
2019-01-15T18:06:59.674Z,18.53
2019-01-15T18:09:29.834Z,18.83
2019-01-15T18:12:09.393Z,17.90
2019-01-15T18:14:39.562Z,19.40
2019-01-15T18:17:12.530Z,17.63
2019-01-15T18:19:58.640Z,17.07
2019-01-15T18:22:37.644Z,19.13
2019-01-15T18:25:14.841Z,18.80
2019-01-15T18:27:56.790Z,17.93
2019-01-15T18:30:45.012Z,19.53
2019-01-15T18:33:15.415Z,19.67
2019-01-15T18:35:50.047Z,20.63
2019-01-15T18:38:20.162Z,18.60
2019-01-15T18:40:55.899Z,20.43
2019-01-15T18:43:44.072Z,20.40
2019-01-15T18:46:16.821Z,23.40
2019-01-15T18:48:56.731Z,20.57
2019-01-15T18:51:33.051Z,20.97
2019-01-15T18:54:09.058Z,20.20
2019-01-15T18:56:54.357Z,20.53
2019-01-15T18:59:33.413Z,21.50
2019-01-15T19:02:30.203Z,21.53
2019-01-15T19:05:18.504Z,21.23
2019-01-15T19:07:57.801Z,21.47
2019-01-15T19:10:27.899Z,21.53
2019-01-15T19:13:00.807Z,22.53
2019-01-15T19:15:48.953Z,22.37
2019-01-15T19:18:25.703Z,21.53
2019-01-15T19:20:55.768Z,23.30
2019-01-15T19:23:38.275Z,22.03
2019-01-15T19:26:08.450Z,23.03
2019-01-15T19:28:38.547Z,21.90
2019-01-15T19:31:08.634Z,22.17
2019-01-15T19:33:44.496Z,22.17
2019-01-15T19:36:14.603Z,21.10
2019-01-15T19:38:47.154Z,23.43
2019-01-15T19:41:26.041Z,22.63
2019-01-15T19:43:58.908Z,21.93
2019-01-15T19:46:29.144Z,22.50
2019-01-15T19:48:59.381Z,22.80
2019-01-15T19:51:32.253Z,22.70
2019-01-15T19:54:04.765Z,23.10
2019-01-15T19:56:34.920Z,23.23
2019-01-15T19:59:16.830Z,23.03
2019-01-15T20:01:49.774Z,20.83
2019-01-15T20:04:36.865Z,21.57
2019-01-15T20:07:08.890Z,20.07
2019-01-15T20:09:54.349Z,19.87
2019-01-15T20:12:34.346Z,20.20
2019-01-15T20:15:05.599Z,20.33
2019-01-15T20:17:55.439Z,20.23
2019-01-15T20:20:32.041Z,20.13
2019-01-15T20:23:30.105Z,18.67
2019-01-15T20:26:08.652Z,19.63
2019-01-15T20:32:04.481Z,19.10
2019-01-15T20:34:47.581Z,18.83
2019-01-15T20:40:50.931Z,20.57
2019-01-15T20:43:34.230Z,19.00
2019-01-15T20:46:07.559Z,17.97
2019-01-15T20:48:54.314Z,17.37
2019-01-15T20:51:27.891Z,17.03
2019-01-15T20:54:08.486Z,18.20
2019-01-15T20:56:57.188Z,17.50
2019-01-15T20:59:30.932Z,16.90
2019-01-15T21:02:04.099Z,16.57
2019-01-15T21:04:50.474Z,17.07
2019-01-15T21:07:29.874Z,16.67
2019-01-15T21:10:00.486Z,16.50
2019-01-15T21:12:33.711Z,17.57
2019-01-15T21:15:06.897Z,18.57
2019-01-15T21:17:44.894Z,16.87
2019-01-15T21:20:31.527Z,15.60
2019-01-15T21:23:18.236Z,17.00
2019-01-15T21:25:55.864Z,16.17
2019-01-15T21:28:42.968Z,16.87
2019-01-15T21:31:29.627Z,17.23
2019-01-15T21:34:00.310Z,16.27
2019-01-15T21:36:36.902Z,15.47
2019-01-15T21:39:11.328Z,15.80
2019-01-15T21:41:46.234Z,14.40
2019-01-15T21:44:16.398Z,14.90
2019-01-15T21:46:46.847Z,15.53
2019-01-15T21:49:23.333Z,14.60
2019-01-15T21:52:02.663Z,13.83
2019-01-15T21:54:41.864Z,12.67
2019-01-15T21:57:21.429Z,13.83
2019-01-15T21:59:54.853Z,15.23
2019-01-15T22:02:25.435Z,14.20
2019-01-15T22:05:00.216Z,13.23
2019-01-15T22:07:32.066Z,13.57
2019-01-15T22:10:10.061Z,13.93
2019-01-15T22:12:49.570Z,14.37
2019-01-15T22:15:20.028Z,14.53
2019-01-15T22:17:50.469Z,13.83
2019-01-15T22:20:24.333Z,14.17
2019-01-15T22:22:56.484Z,15.47
2019-01-15T22:25:27.166Z,16.37
2019-01-15T22:28:13.280Z,16.20
2019-01-15T22:30:46.918Z,15.13
2019-01-15T22:33:20.494Z,17.27
2019-01-15T22:36:18.067Z,17.03
2019-01-15T22:39:21.089Z,16.90
2019-01-15T22:42:19.814Z,16.90
2019-01-15T22:44:50.479Z,15.70
2019-01-15T22:47:40.301Z,15.03
2019-01-15T22:50:16.025Z,15.47
2019-01-15T22:53:04.049Z,14.67
2019-01-15T22:55:53.543Z,15.93
2019-01-15T22:58:29.807Z,15.53
2019-01-15T23:01:20.387Z,16.30
2019-01-15T23:03:53.498Z,16.33
2019-01-15T23:06:32.202Z,16.37
2019-01-15T23:09:08.337Z,17.83
2019-01-15T23:11:44.598Z,18.57
2019-01-15T23:14:32.745Z,18.70
2019-01-15T23:17:05.569Z,18.53
2019-01-15T23:19:44.750Z,19.73
2019-01-15T23:22:30.635Z,19.77
2019-01-15T23:25:16.861Z,20.70
2019-01-15T23:28:02.243Z,20.00
2019-01-15T23:30:48.816Z,20.87
2019-01-15T23:33:21.579Z,19.70
2019-01-15T23:35:54.110Z,20.60
2019-01-15T23:38:24.199Z,22.27
2019-01-15T23:41:10.571Z,20.87
2019-01-15T23:43:57.155Z,22.17
2019-01-15T23:46:28.684Z,21.93
2019-01-15T23:48:58.773Z,22.10
2019-01-15T23:51:44.813Z,22.93
2019-01-15T23:54:14.968Z,22.30
2019-01-15T23:56:54.783Z,22.20
2019-01-15T23:59:27.649Z,22.40
